Time;durP1;ratioP1;P1;durP2;ratioP2;P2;SDS_P1;SDS_P2;PMS_P1;PMS_P2;Temp;Humidity;BMP_temperature;BMP_pressure;BME280_temperature;BME280_humidity;BME280_pressure;Samples;Min_cycle;Max_cycle;Signal;HPM_P1;HPM_P2
2022/06/30 00:03:50;;;;;;;4.53;3.07;;;18.30;99.90;;;;;;8372796;28;20344;-68
2022/06/30 00:07:51;;;;;;;5.23;3.20;;;18.30;99.90;;;;;;8372711;28;20214;-65
2022/06/30 00:11:52;;;;;;;4.93;3.30;;;18.30;99.90;;;;;;8379528;28;20213;-65
2022/06/30 00:15:52;;;;;;;6.10;3.00;;;18.30;99.90;;;;;;8376672;28;20256;-66
2022/06/30 00:19:53;;;;;;;4.13;3.10;;;18.20;99.90;;;;;;8367708;28;20351;-64
2022/06/30 00:23:54;;;;;;;3.70;2.60;;;18.20;99.90;;;;;;8373610;28;20245;-66
2022/06/30 00:27:55;;;;;;;4.93;3.30;;;18.10;99.90;;;;;;8369153;28;20209;-65
2022/06/30 00:31:56;;;;;;;2.90;2.70;;;18.10;99.90;;;;;;8368648;28;20179;-64
2022/06/30 00:35:57;;;;;;;5.03;2.93;;;18.10;99.90;;;;;;8380151;28;20185;-64
2022/06/30 00:39:57;;;;;;;3.67;3.10;;;18.10;99.90;;;;;;8365706;28;20178;-65
2022/06/30 00:43:58;;;;;;;3.93;3.53;;;18.00;99.90;;;;;;8368149;28;20252;-66
2022/06/30 00:48:00;;;;;;;4.17;3.50;;;18.00;99.90;;;;;;8366978;28;20213;-66
2022/06/30 00:52:02;;;;;;;4.37;3.73;;;18.00;99.90;;;;;;8370650;28;20177;-65
2022/06/30 00:56:04;;;;;;;4.30;3.73;;;18.00;99.90;;;;;;8361207;28;20190;-65
2022/06/30 01:00:06;;;;;;;4.07;3.67;;;18.10;99.90;;;;;;8372919;28;20189;-65
2022/06/30 01:04:07;;;;;;;5.60;4.27;;;18.20;99.90;;;;;;8372554;28;20201;-69
2022/06/30 01:08:10;;;;;;;5.57;4.47;;;18.20;99.90;;;;;;8371606;28;20216;-66
2022/06/30 01:16:30;;;;;;;4.70;4.30;;;18.20;99.90;;;;;;8373718;28;20203;-67
2022/06/30 01:20:33;;;;;;;6.53;4.80;;;18.30;99.90;;;;;;8373700;28;20193;-66
2022/06/30 01:24:34;;;;;;;5.83;4.77;;;18.30;99.90;;;;;;8373188;28;20190;-65
2022/06/30 01:28:35;;;;;;;5.27;4.43;;;18.30;99.90;;;;;;8377028;28;20209;-63
2022/06/30 01:32:36;;;;;;;5.20;3.97;;;18.30;99.90;;;;;;8374466;28;20237;-68
2022/06/30 01:36:37;;;;;;;6.37;4.43;;;18.30;99.90;;;;;;8381904;28;20189;-65
2022/06/30 01:40:39;;;;;;;6.03;3.93;;;18.30;99.90;;;;;;8370153;28;20184;-69
2022/06/30 01:44:39;;;;;;;5.57;4.90;;;18.30;99.90;;;;;;8374947;28;20197;-65
2022/06/30 01:48:40;;;;;;;6.10;4.97;;;18.30;99.90;;;;;;8383591;28;20231;-64
2022/06/30 01:52:41;;;;;;;4.43;4.03;;;18.30;99.90;;;;;;8384477;28;20191;-68
2022/06/30 01:56:42;;;;;;;4.40;3.90;;;18.20;99.90;;;;;;8380588;28;20207;-64
2022/06/30 02:00:43;;;;;;;4.20;3.80;;;18.20;99.90;;;;;;8378951;28;20193;-63
2022/06/30 02:04:46;;;;;;;5.07;3.97;;;18.20;99.90;;;;;;8370764;28;20198;-64
2022/06/30 02:08:47;;;;;;;4.50;4.00;;;18.20;99.90;;;;;;8375118;28;20209;-66
2022/06/30 02:12:48;;;;;;;5.30;4.17;;;18.30;99.90;;;;;;8373583;28;20234;-69
2022/06/30 02:16:49;;;;;;;4.60;3.20;;;18.30;99.90;;;;;;8375561;28;20193;-66
2022/06/30 02:20:50;;;;;;;4.07;3.67;;;18.30;99.90;;;;;;8376547;28;20189;-64
2022/06/30 02:24:51;;;;;;;5.23;3.13;;;18.30;99.90;;;;;;8378043;28;20196;-65
2022/06/30 02:28:52;;;;;;;5.23;4.00;;;18.30;99.90;;;;;;8368297;28;20228;-67
2022/06/30 02:32:52;;;;;;;4.07;3.20;;;18.30;99.90;;;;;;8366965;28;20182;-63
2022/06/30 02:36:54;;;;;;;4.23;3.20;;;18.30;99.90;;;;;;8370854;28;20259;-64
2022/06/30 02:40:54;;;;;;;6.17;3.87;;;18.30;99.90;;;;;;8369075;28;20188;-64
2022/06/30 02:44:55;;;;;;;6.03;4.27;;;18.30;99.90;;;;;;8372157;28;20511;-69
2022/06/30 02:48:56;;;;;;;4.23;3.60;;;18.30;99.90;;;;;;8370162;28;20204;-64
2022/06/30 02:52:57;;;;;;;3.67;2.90;;;18.30;99.90;;;;;;8369021;28;20181;-69
2022/06/30 02:56:58;;;;;;;3.30;2.67;;;18.30;99.90;;;;;;8373738;28;20211;-67
2022/06/30 03:00:59;;;;;;;3.63;3.33;;;18.30;99.90;;;;;;8373821;28;20189;-67
2022/06/30 03:05:00;;;;;;;4.40;3.43;;;18.30;99.90;;;;;;8380176;28;20200;-65
2022/06/30 03:09:02;;;;;;;3.50;2.73;;;18.40;99.90;;;;;;8374203;28;20180;-67
2022/06/30 03:13:03;;;;;;;3.43;2.93;;;18.40;99.90;;;;;;8369601;28;20192;-68
2022/06/30 03:17:04;;;;;;;3.80;3.40;;;18.50;99.90;;;;;;8374780;28;20280;-70
2022/06/30 03:21:05;;;;;;;5.70;3.63;;;18.50;99.90;;;;;;8369879;28;20192;-70
2022/06/30 03:25:07;;;;;;;6.00;3.73;;;18.50;99.90;;;;;;8364285;28;20185;-70
2022/06/30 03:29:08;;;;;;;4.83;4.10;;;18.50;99.90;;;;;;8368312;28;20224;-71
2022/06/30 03:33:09;;;;;;;4.57;4.17;;;18.50;99.90;;;;;;8377281;28;20184;-69
2022/06/30 03:37:10;;;;;;;5.50;4.33;;;18.50;99.90;;;;;;8375024;28;20191;-71
2022/06/30 03:41:10;;;;;;;6.03;3.90;;;18.50;99.90;;;;;;8373834;28;20466;-71
2022/06/30 03:45:11;;;;;;;4.37;3.53;;;18.60;99.90;;;;;;8377948;28;20185;-71
2022/06/30 03:49:12;;;;;;;5.20;4.10;;;18.60;99.90;;;;;;8381085;28;20193;-71
2022/06/30 03:53:13;;;;;;;4.17;3.77;;;18.60;99.90;;;;;;8367390;28;20190;-66
2022/06/30 03:57:14;;;;;;;4.00;3.60;;;18.60;99.90;;;;;;8370542;28;20211;-69
2022/06/30 04:01:14;;;;;;;3.83;3.33;;;18.60;99.90;;;;;;8373755;28;20180;-68
2022/06/30 04:05:15;;;;;;;5.20;3.87;;;18.60;99.90;;;;;;8373084;28;20204;-69
2022/06/30 04:09:16;;;;;;;5.00;3.87;;;18.60;99.90;;;;;;8372457;28;20200;-64
2022/06/30 04:13:18;;;;;;;10.03;4.97;;;18.60;99.90;;;;;;8369055;28;20295;-71
2022/06/30 04:17:19;;;;;;;4.80;4.40;;;18.60;99.90;;;;;;8374849;28;20197;-71
2022/06/30 04:21:20;;;;;;;6.23;5.20;;;18.60;99.90;;;;;;8376896;28;20189;-67
2022/06/30 04:25:21;;;;;;;6.43;5.77;;;18.60;99.90;;;;;;8371764;28;20235;-65
2022/06/30 04:29:22;;;;;;;7.50;6.47;;;18.60;99.90;;;;;;8368600;28;20203;-66
2022/06/30 04:33:23;;;;;;;11.40;7.77;;;18.50;99.90;;;;;;8377593;28;20214;-69
2022/06/30 04:37:24;;;;;;;10.00;8.40;;;18.50;99.90;;;;;;8373145;28;20264;-67
2022/06/30 04:41:24;;;;;;;11.30;8.23;;;18.50;99.90;;;;;;8362687;28;20184;-68
2022/06/30 04:45:25;;;;;;;10.83;9.40;;;18.50;99.90;;;;;;8368731;28;20204;-66
2022/06/30 04:49:26;;;;;;;17.17;13.60;;;18.50;99.90;;;;;;8374849;28;20189;-65
2022/06/30 04:53:27;;;;;;;17.07;14.20;;;18.50;99.90;;;;;;8372464;28;20214;-65
2022/06/30 04:57:28;;;;;;;17.00;13.50;;;18.60;99.90;;;;;;8375519;28;20181;-66
2022/06/30 05:01:29;;;;;;;15.80;14.13;;;18.70;99.90;;;;;;8379239;28;20182;-66
2022/06/30 05:05:30;;;;;;;16.40;12.87;;;18.80;99.90;;;;;;8377419;28;20270;-65
2022/06/30 05:09:30;;;;;;;16.50;13.03;;;18.90;99.90;;;;;;8380073;28;20178;-64
2022/06/30 05:13:31;;;;;;;14.73;11.00;;;18.90;99.90;;;;;;8373111;28;20621;-64
2022/06/30 05:17:35;;;;;;;13.23;11.50;;;19.10;99.90;;;;;;8373222;28;20196;-64
2022/06/30 05:21:36;;;;;;;12.00;9.50;;;19.20;99.90;;;;;;8372406;28;20630;-62
2022/06/30 05:29:57;;;;;;;15.93;10.00;;;19.50;99.90;;;;;;8374470;28;20219;-64
2022/06/30 05:33:58;;;;;;;11.10;8.57;;;19.80;99.90;;;;;;8376048;28;20177;-65
2022/06/30 05:37:58;;;;;;;14.50;9.77;;;20.00;99.90;;;;;;8375140;28;20185;-66
2022/06/30 05:42:00;;;;;;;13.07;8.63;;;20.20;99.90;;;;;;8375574;28;20185;-70
2022/06/30 05:46:01;;;;;;;12.17;6.53;;;20.50;99.90;;;;;;8379370;28;20283;-65
2022/06/30 05:50:02;;;;;;;13.07;8.03;;;20.80;99.90;;;;;;8372739;28;20234;-66
2022/06/30 05:54:03;;;;;;;7.63;5.07;;;21.10;99.90;;;;;;8370111;28;20177;-66
2022/06/30 05:58:04;;;;;;;5.07;4.57;;;21.40;99.90;;;;;;8368500;28;20239;-66
2022/06/30 06:02:05;;;;;;;8.60;4.97;;;22.00;99.90;;;;;;8378624;28;20189;-70
2022/06/30 06:06:06;;;;;;;7.30;4.70;;;22.40;99.90;;;;;;8377636;28;20269;-65
2022/06/30 06:10:07;;;;;;;9.00;5.57;;;22.70;99.90;;;;;;8382579;28;20213;-68
2022/06/30 06:14:08;;;;;;;6.83;3.83;;;22.80;99.90;;;;;;8374224;28;20196;-66
2022/06/30 06:18:10;;;;;;;7.40;3.10;;;22.90;97.00;;;;;;8371705;28;20680;-64
2022/06/30 06:22:11;;;;;;;10.63;5.13;;;22.90;34.40;;;;;;8372824;28;20208;-63
2022/06/30 06:26:12;;;;;;;6.70;3.37;;;23.00;99.90;;;;;;8369182;28;20204;-68
2022/06/30 06:30:13;;;;;;;10.80;4.57;;;23.30;32.10;;;;;;8370479;28;20205;-65
2022/06/30 06:34:14;;;;;;;5.33;3.97;;;23.70;99.90;;;;;;8374941;28;20235;-68
2022/06/30 06:38:15;;;;;;;4.57;3.33;;;24.10;1.00;;;;;;8374000;28;20220;-68
2022/06/30 06:42:16;;;;;;;7.67;3.60;;;24.50;99.90;;;;;;8378505;28;20277;-69
2022/06/30 06:46:18;;;;;;;6.68;2.88;;;24.90;1.00;;;;;;8371330;28;20209;-70
2022/06/30 06:50:19;;;;;;;3.53;2.40;;;25.20;99.90;;;;;;8372005;28;20189;-70
2022/06/30 06:54:20;;;;;;;5.82;2.83;;;25.60;99.90;;;;;;8372201;28;20185;-70
2022/06/30 06:58:21;;;;;;;4.90;2.30;;;25.90;99.90;;;;;;8368593;28;20188;-69
2022/06/30 07:02:22;;;;;;;5.45;2.67;;;26.30;99.90;;;;;;8374060;28;20178;-69
2022/06/30 07:06:22;;;;;;;3.55;2.08;;;26.40;99.90;;;;;;8376510;28;20219;-68
2022/06/30 07:10:24;;;;;;;3.22;2.08;;;26.70;99.90;;;;;;8365719;28;20471;-70
2022/06/30 07:14:25;;;;;;;5.85;2.33;;;27.10;8.00;;;;;;8369170;28;20189;-69
2022/06/30 07:18:25;;;;;;;6.82;2.70;;;27.20;1.00;;;;;;8367848;28;20257;-69
2022/06/30 07:22:26;;;;;;;4.45;3.00;;;26.80;1.00;;;;;;8370525;28;20227;-68
2022/06/30 07:26:27;;;;;;;4.18;2.40;;;26.00;1.00;;;;;;8367702;28;20229;-71
2022/06/30 07:30:29;;;;;;;4.80;3.25;;;25.90;1.00;;;;;;8372127;28;20621;-71
2022/06/30 07:34:29;;;;;;;2.55;2.35;;;26.00;1.00;;;;;;8365829;28;20186;-71
2022/06/30 07:38:30;;;;;;;3.13;2.83;;;26.30;1.00;;;;;;8370206;28;20214;-71
2022/06/30 07:42:31;;;;;;;3.78;2.65;;;26.50;1.00;;;;;;8372950;28;20273;-68
2022/06/30 07:46:32;;;;;;;4.15;2.50;;;26.90;1.00;;;;;;8366322;28;20205;-64
2022/06/30 07:50:33;;;;;;;5.85;2.60;;;27.40;1.00;;;;;;8367479;28;20181;-71
2022/06/30 07:54:34;;;;;;;5.35;2.70;;;27.70;99.90;;;;;;8371241;28;20177;-69
2022/06/30 07:58:35;;;;;;;4.65;2.28;;;27.90;99.90;;;;;;8380493;28;20193;-69
2022/06/30 08:02:36;;;;;;;3.53;2.60;;;27.90;99.90;;;;;;8370231;28;20181;-72
2022/06/30 08:06:37;;;;;;;3.65;2.70;;;28.30;99.90;;;;;;8375248;28;20219;-72
2022/06/30 08:10:38;;;;;;;6.13;2.75;;;28.40;99.90;;;;;;8376180;28;20740;-69
2022/06/30 08:14:39;;;;;;;6.95;2.90;;;27.80;99.90;;;;;;8377846;28;20181;-71
2022/06/30 08:18:41;;;;;;;6.03;2.80;;;27.20;99.90;;;;;;8369089;28;20190;-72
2022/06/30 08:22:42;;;;;;;3.33;2.97;;;26.40;1.00;;;;;;8377565;28;20181;-71
2022/06/30 08:26:43;;;;;;;5.88;3.22;;;26.40;1.00;;;;;;8367532;28;20206;-72
2022/06/30 08:30:44;;;;;;;4.05;2.83;;;26.00;1.00;;;;;;8376405;28;20204;-66
2022/06/30 08:34:45;;;;;;;4.20;2.97;;;25.60;99.90;;;;;;8378356;28;20186;-72
2022/06/30 08:38:46;;;;;;;3.40;3.10;;;25.40;99.90;;;;;;8375898;28;20182;-70
2022/06/30 08:42:48;;;;;;;4.75;2.67;;;25.60;99.90;;;;;;8375929;28;20185;-68
2022/06/30 08:46:49;;;;;;;3.40;2.78;;;25.60;1.00;;;;;;8373741;28;20216;-72
2022/06/30 08:51:03;;;;;;;3.97;2.78;;;25.50;1.00;;;;;;8380864;28;20195;-74
2022/06/30 08:55:08;;;;;;;5.93;3.10;;;25.70;11.50;;;;;;8381099;28;20182;-72
2022/06/30 08:59:09;;;;;;;3.03;2.72;;;25.90;1.00;;;;;;8383000;28;20185;-68
2022/06/30 09:03:11;;;;;;;3.40;2.38;;;26.00;99.90;;;;;;8374004;28;21415;-69
2022/06/30 09:07:11;;;;;;;3.97;2.28;;;26.30;99.90;;;;;;8369817;28;20213;-69
2022/06/30 09:11:12;;;;;;;2.45;2.25;;;26.90;99.90;;;;;;8375167;28;20247;-65
2022/06/30 09:15:15;;;;;;;2.40;2.20;;;27.50;99.90;;;;;;8380088;28;20181;-67
2022/06/30 09:19:15;;;;;;;2.92;2.03;;;28.10;99.90;;;;;;8373728;28;20204;-67
2022/06/30 09:23:26;;;;;;;5.03;2.88;;;28.60;99.90;;;;;;8377770;28;20241;-66
2022/06/30 09:27:29;;;;;;;4.20;2.67;;;28.90;99.90;;;;;;8376362;28;20209;-68
2022/06/30 09:31:45;;;;;;;3.20;2.67;;;29.10;99.90;;;;;;8372448;28;20186;-66
2022/06/30 09:35:46;;;;;;;2.92;2.10;;;29.50;99.90;;;;;;8374895;28;20192;-68
2022/06/30 09:39:49;;;;;;;4.40;2.70;;;29.60;99.90;;;;;;8372762;28;20178;-67
2022/06/30 09:43:50;;;;;;;3.20;2.67;;;29.80;99.90;;;;;;8377398;28;20185;-71
2022/06/30 09:47:53;;;;;;;4.25;2.90;;;29.30;99.90;;;;;;8377502;28;20215;-70
2022/06/30 09:51:54;;;;;;;4.38;2.90;;;28.70;99.90;;;;;;8377084;28;20199;-70
2022/06/30 09:55:56;;;;;;;4.07;2.72;;;28.00;99.90;;;;;;8372663;28;20187;-71
2022/06/30 10:00:07;;;;;;;3.20;2.75;;;27.60;99.90;;;;;;8367797;28;20185;-71
2022/06/30 10:04:10;;;;;;;2.92;2.60;;;27.50;99.90;;;;;;8375346;28;20201;-70
2022/06/30 10:08:17;;;;;;;3.75;2.72;;;27.60;99.90;;;;;;8374424;28;20220;-71
2022/06/30 10:12:19;;;;;;;4.97;3.22;;;27.30;99.90;;;;;;8378625;28;20182;-71
2022/06/30 10:16:21;;;;;;;4.93;3.08;;;27.40;99.90;;;;;;8372092;28;20317;-69
2022/06/30 10:20:22;;;;;;;4.20;3.00;;;27.50;99.90;;;;;;8373243;28;20186;-67
2022/06/30 10:24:23;;;;;;;3.13;2.83;;;27.70;99.90;;;;;;8375365;28;20193;-67
2022/06/30 10:28:27;;;;;;;3.70;2.85;;;28.10;99.90;;;;;;8376250;28;20209;-69
2022/06/30 10:33:06;;;;;;;3.85;2.92;;;28.20;99.90;;;;;;8371509;28;20206;-67
2022/06/30 10:37:31;;;;;;;3.20;2.72;;;28.40;99.90;;;;;;8379843;28;20193;-71
2022/06/30 10:41:42;;;;;;;3.65;3.00;;;28.40;99.90;;;;;;8371972;28;20185;-71
2022/06/30 10:45:59;;;;;;;5.70;3.17;;;28.40;99.90;;;;;;8370814;28;20302;-68
2022/06/30 10:50:00;;;;;;;3.42;2.75;;;28.00;99.90;;;;;;8382106;28;20181;-68
2022/06/30 10:54:01;;;;;;;7.00;3.15;;;27.70;99.90;;;;;;8367484;28;20197;-72
2022/06/30 10:58:07;;;;;;;5.20;3.00;;;28.10;99.90;;;;;;8369583;28;20185;-69
2022/06/30 11:02:08;;;;;;;5.00;3.20;;;28.50;99.90;;;;;;8367387;28;20197;-64
2022/06/30 11:06:13;;;;;;;4.57;2.95;;;28.60;99.90;;;;;;8371246;28;20209;-71
2022/06/30 11:10:18;;;;;;;3.55;2.67;;;28.40;99.90;;;;;;8369819;28;20178;-65
2022/06/30 11:14:19;;;;;;;3.47;2.85;;;27.90;99.90;;;;;;8374490;28;20173;-67
2022/06/30 11:18:21;;;;;;;2.75;2.55;;;27.70;99.90;;;;;;8373449;28;20192;-69
2022/06/30 11:22:27;;;;;;;2.58;2.38;;;27.90;99.90;;;;;;8371536;28;20186;-69
2022/06/30 11:30:49;;;;;;;2.80;2.40;;;28.40;99.90;;;;;;8363712;28;20227;-70
2022/06/30 11:34:50;;;;;;;4.10;2.42;;;28.50;99.90;;;;;;8369652;28;20173;-71
2022/06/30 11:39:02;;;;;;;2.83;2.33;;;28.70;99.90;;;;;;8369847;28;20181;-67
2022/06/30 11:43:22;;;;;;;5.93;2.70;;;29.10;99.90;;;;;;8367713;28;20627;-72
2022/06/30 11:47:23;;;;;;;4.53;2.92;;;29.40;99.90;;;;;;8371230;28;20237;-72
2022/06/30 11:51:25;;;;;;;4.40;2.80;;;29.40;99.90;;;;;;8362546;28;20182;-68
2022/06/30 11:55:28;;;;;;;3.78;2.03;;;29.80;95.30;;;;;;8363815;28;20491;-72
2022/06/30 11:59:29;;;;;;;2.88;2.35;;;29.80;58.70;;;;;;8362885;28;20185;-70
2022/06/30 12:03:29;;;;;;;2.75;2.38;;;29.60;95.40;;;;;;8367588;28;20277;-69
2022/06/30 12:07:31;;;;;;;2.63;2.40;;;30.10;57.30;;;;;;8375948;28;20300;-70
2022/06/30 12:11:34;;;;;;;2.50;1.92;;;30.70;26.30;;;;;;8367401;28;20205;-65
2022/06/30 12:15:36;;;;;;;2.15;1.80;;;30.60;14.20;;;;;;8369513;28;20273;-69
2022/06/30 12:19:38;;;;;;;6.10;2.50;;;30.60;5.90;;;;;;8375082;28;20612;-69
2022/06/30 12:23:39;;;;;;;5.00;2.10;;;30.60;41.10;;;;;;8375766;28;20182;-68
2022/06/30 12:27:51;;;;;;;4.00;2.00;;;30.40;20.50;;;;;;8375026;28;20208;-68
2022/06/30 12:32:03;;;;;;;2.15;1.67;;;30.30;2.30;;;;;;8372591;28;20177;-72
2022/06/30 12:36:04;;;;;;;3.33;2.00;;;30.40;15.60;;;;;;8378852;28;20299;-70
2022/06/30 12:40:11;;;;;;;2.03;1.80;;;30.30;27.30;;;;;;8369265;28;20181;-68
2022/06/30 12:44:13;;;;;;;4.47;1.80;;;30.30;18.80;;;;;;8372965;28;20577;-71
2022/06/30 12:48:53;;;;;;;2.95;1.92;;;30.60;40.30;;;;;;8370903;28;20213;-66
2022/06/30 12:52:54;;;;;;;2.45;1.60;;;30.70;24.70;;;;;;8386121;28;20262;-68
2022/06/30 12:57:04;;;;;;;2.40;1.70;;;30.30;15.00;;;;;;8370205;28;20275;-64
2022/06/30 13:01:05;;;;;;;2.47;1.90;;;29.80;21.20;;;;;;8375720;28;20190;-70
2022/06/30 13:05:13;;;;;;;1.85;1.70;;;29.90;49.70;;;;;;8378183;28;20200;-67
2022/06/30 13:09:16;;;;;;;1.95;1.55;;;30.00;71.70;;;;;;8378013;28;20250;-67
2022/06/30 13:13:17;;;;;;;2.40;2.20;;;30.50;57.00;;;;;;8376568;28;20331;-69
2022/06/30 13:17:19;;;;;;;4.07;2.00;;;30.50;65.00;;;;;;8375705;28;20216;-66
2022/06/30 13:21:20;;;;;;;4.97;2.35;;;30.20;62.00;;;;;;8377107;28;20181;-64
2022/06/30 13:25:21;;;;;;;6.30;2.80;;;29.70;99.90;;;;;;8374551;28;20177;-68
2022/06/30 13:29:23;;;;;;;2.58;1.98;;;29.40;99.90;;;;;;8377152;28;20535;-73
2022/06/30 13:33:24;;;;;;;2.65;2.45;;;29.50;99.90;;;;;;8385831;28;20264;-70
2022/06/30 13:37:25;;;;;;;3.42;2.88;;;29.50;99.90;;;;;;8380047;28;20190;-69
2022/06/30 13:41:27;;;;;;;3.40;2.70;;;28.90;99.90;;;;;;8371099;28;20209;-66
2022/06/30 13:45:28;;;;;;;4.85;2.67;;;28.80;99.90;;;;;;8370703;28;20186;-66
2022/06/30 13:49:29;;;;;;;6.93;3.38;;;29.00;99.90;;;;;;8373190;28;20183;-67
2022/06/30 13:53:30;;;;;;;3.47;2.80;;;28.80;99.90;;;;;;8370639;28;20213;-68
2022/06/30 13:57:31;;;;;;;5.75;3.10;;;28.80;99.90;;;;;;8375518;28;20243;-68
2022/06/30 14:01:32;;;;;;;3.58;2.72;;;28.60;99.90;;;;;;8373570;28;20188;-69
2022/06/30 14:05:33;;;;;;;3.78;2.75;;;28.70;99.90;;;;;;8374456;28;20203;-70
2022/06/30 14:09:34;;;;;;;3.55;2.58;;;28.80;99.90;;;;;;8375842;28;20205;-69
2022/06/30 14:13:35;;;;;;;3.50;2.70;;;28.60;99.90;;;;;;8378245;28;20181;-71
2022/06/30 14:17:37;;;;;;;5.18;2.72;;;28.40;99.90;;;;;;8375571;28;20192;-69
2022/06/30 14:21:39;;;;;;;4.82;2.78;;;28.20;99.90;;;;;;8369196;28;20182;-65
2022/06/30 14:25:40;;;;;;;3.97;3.05;;;28.50;99.90;;;;;;8376256;28;20186;-71
2022/06/30 14:29:42;;;;;;;2.58;2.38;;;28.80;99.90;;;;;;8373935;28;20201;-73
2022/06/30 14:33:43;;;;;;;2.85;2.40;;;29.30;99.90;;;;;;8379829;28;20170;-67
2022/06/30 14:37:45;;;;;;;2.70;2.50;;;29.80;99.90;;;;;;8373818;28;20654;-70
2022/06/30 14:46:06;;;;;;;3.95;2.70;;;29.80;99.90;;;;;;8369552;28;20241;-69
2022/06/30 14:50:08;;;;;;;3.65;2.55;;;30.00;96.90;;;;;;8383218;28;20323;-73
2022/06/30 14:54:09;;;;;;;3.53;3.03;;;30.00;93.20;;;;;;8370436;28;20326;-72
2022/06/30 14:58:10;;;;;;;3.50;2.80;;;30.10;91.10;;;;;;8376856;28;20190;-71
2022/06/30 15:02:11;;;;;;;2.70;2.40;;;30.20;68.70;;;;;;8376703;28;20276;-64
2022/06/30 15:06:12;;;;;;;4.38;2.95;;;30.20;92.60;;;;;;8375480;28;20219;-64
2022/06/30 15:10:13;;;;;;;3.20;2.90;;;30.60;67.80;;;;;;8372869;28;20292;-70
2022/06/30 15:14:14;;;;;;;3.53;2.90;;;31.00;35.10;;;;;;8374818;28;20185;-64
2022/06/30 15:18:15;;;;;;;3.45;2.60;;;31.10;26.70;;;;;;8373576;28;20251;-66
2022/06/30 15:26:41;;;;;;;4.28;2.70;;;31.30;11.20;;;;;;8374842;28;20216;-71
2022/06/30 15:30:42;;;;;;;5.30;2.90;;;31.50;10.50;;;;;;8376468;28;20206;-67
2022/06/30 15:34:44;;;;;;;4.25;2.78;;;31.30;13.10;;;;;;8374895;28;20221;-70
2022/06/30 15:38:45;;;;;;;3.97;2.90;;;31.10;8.40;;;;;;8382874;28;20208;-69
2022/06/30 15:42:47;;;;;;;2.88;2.65;;;31.00;27.40;;;;;;8371636;28;20220;-70
2022/06/30 15:46:48;;;;;;;3.55;2.67;;;30.50;83.50;;;;;;8375632;28;20276;-71
2022/06/30 15:50:49;;;;;;;2.72;2.50;;;30.30;83.30;;;;;;8373218;28;20177;-72
2022/06/30 15:54:51;;;;;;;4.45;2.53;;;30.20;99.90;;;;;;8371865;28;20196;-66
2022/06/30 15:58:52;;;;;;;2.63;2.38;;;30.10;80.00;;;;;;8364632;28;20191;-69
2022/06/30 16:02:55;;;;;;;3.15;2.70;;;29.90;99.90;;;;;;8370533;28;20212;-70
2022/06/30 16:06:56;;;;;;;3.25;2.30;;;30.20;90.50;;;;;;8375299;28;20205;-71
2022/06/30 16:10:57;;;;;;;3.40;2.92;;;30.30;75.50;;;;;;8376326;28;20224;-69
2022/06/30 16:14:58;;;;;;;2.78;2.58;;;30.20;66.20;;;;;;8375434;28;20177;-67
2022/06/30 16:18:59;;;;;;;2.80;2.47;;;30.10;64.30;;;;;;8374400;28;20177;-69
2022/06/30 16:23:00;;;;;;;4.55;2.70;;;30.10;65.80;;;;;;8382399;28;20188;-68
2022/06/30 16:27:01;;;;;;;2.88;2.47;;;30.30;91.00;;;;;;8368048;28;20193;-67
2022/06/30 16:31:02;;;;;;;3.70;2.78;;;30.40;49.10;;;;;;8372918;28;20185;-71
2022/06/30 16:35:03;;;;;;;4.07;2.67;;;30.30;53.30;;;;;;8366614;28;20189;-70
2022/06/30 16:39:04;;;;;;;5.07;2.80;;;30.00;80.20;;;;;;8373379;28;20185;-68
2022/06/30 16:43:07;;;;;;;5.30;3.10;;;29.70;99.90;;;;;;8372649;28;20191;-70
2022/06/30 16:47:11;;;;;;;4.00;3.08;;;29.50;99.90;;;;;;8379598;28;20200;-67
2022/06/30 16:51:13;;;;;;;3.17;2.75;;;29.40;99.90;;;;;;8377137;28;20185;-68
2022/06/30 16:55:14;;;;;;;3.75;2.90;;;29.50;99.90;;;;;;8383642;28;20374;-70
2022/06/30 16:59:15;;;;;;;4.30;2.78;;;29.60;99.90;;;;;;8383113;28;20181;-70
2022/06/30 17:03:16;;;;;;;5.63;2.90;;;29.70;99.90;;;;;;8378841;28;20204;-73
2022/06/30 17:07:16;;;;;;;4.95;2.75;;;29.70;99.90;;;;;;8377929;28;20211;-69
2022/06/30 17:11:19;;;;;;;3.78;2.50;;;29.60;99.90;;;;;;8373838;28;20182;-70
2022/06/30 17:15:21;;;;;;;2.88;2.67;;;29.60;99.90;;;;;;8374919;28;20182;-69
2022/06/30 17:19:22;;;;;;;5.82;3.03;;;29.70;99.90;;;;;;8372388;28;20367;-71
2022/06/30 17:23:22;;;;;;;4.05;2.45;;;30.10;99.90;;;;;;8372918;28;20197;-68
2022/06/30 17:27:23;;;;;;;3.70;2.67;;;30.40;99.90;;;;;;8373504;28;20244;-69
2022/06/30 17:31:24;;;;;;;6.22;3.85;;;30.60;99.90;;;;;;8381586;28;20177;-70
2022/06/30 17:35:25;;;;;;;4.05;2.55;;;31.30;87.10;;;;;;8376757;28;20188;-69
2022/06/30 17:39:27;;;;;;;5.25;3.30;;;31.80;34.50;;;;;;8378432;28;20181;-67
2022/06/30 17:43:28;;;;;;;2.95;2.60;;;32.10;18.90;;;;;;8379756;28;20662;-68
2022/06/30 17:47:29;;;;;;;3.95;2.63;;;32.40;1.00;;;;;;8369329;28;20217;-67
2022/06/30 17:51:29;;;;;;;3.35;2.50;;;32.70;1.00;;;;;;8371865;28;20181;-68
2022/06/30 17:55:30;;;;;;;3.60;3.30;;;33.10;1.00;;;;;;8371294;28;20180;-67
2022/06/30 17:59:31;;;;;;;5.95;3.63;;;33.60;1.00;;;;;;8375153;28;20178;-66
2022/06/30 18:03:32;;;;;;;7.85;6.00;;;34.00;1.00;;;;;;8379015;28;20223;-67
2022/06/30 18:11:51;;;;;;;5.18;2.90;;;33.90;1.00;;;;;;8376762;28;20220;-67
2022/06/30 18:15:52;;;;;;;4.15;3.38;;;33.70;1.00;;;;;;8378939;28;20178;-66
2022/06/30 18:19:53;;;;;;;3.72;3.40;;;33.60;1.00;;;;;;8383192;28;20259;-66
2022/06/30 18:23:54;;;;;;;5.05;3.25;;;33.20;1.00;;;;;;8374751;28;20676;-67
2022/06/30 18:27:55;;;;;;;3.88;3.58;;;32.80;2.40;;;;;;8364794;28;20223;-67
2022/06/30 18:31:56;;;;;;;5.00;4.13;;;32.40;10.10;;;;;;8368280;28;20263;-69
2022/06/30 18:35:56;;;;;;;5.07;4.50;;;32.10;30.50;;;;;;8382564;28;20230;-68
2022/06/30 18:39:57;;;;;;;6.25;5.35;;;31.90;49.30;;;;;;8375476;28;20181;-69
2022/06/30 18:43:59;;;;;;;6.25;5.65;;;31.70;64.80;;;;;;8381276;28;20172;-69
2022/06/30 18:48:01;;;;;;;4.85;4.35;;;31.40;97.10;;;;;;8372891;28;20196;-69
2022/06/30 18:52:02;;;;;;;6.65;5.07;;;31.20;99.90;;;;;;8372700;28;20533;-70
2022/06/30 18:56:07;;;;;;;7.10;5.45;;;30.80;99.90;;;;;;8375859;28;20210;-70
2022/06/30 19:00:18;;;;;;;6.40;5.03;;;29.70;99.90;;;;;;8377446;28;20208;-69
2022/06/30 19:04:19;;;;;;;7.20;5.00;;;28.80;1.00;;;;;;8377415;28;20292;-69
2022/06/30 19:08:20;;;;;;;6.13;5.38;;;28.10;1.00;;;;;;8372706;28;20213;-70
2022/06/30 19:12:21;;;;;;;4.78;4.38;;;27.60;1.00;;;;;;8371462;28;20256;-70
2022/06/30 19:16:22;;;;;;;5.47;4.97;;;27.00;99.90;;;;;;8369885;28;20239;-70
2022/06/30 19:20:23;;;;;;;6.60;5.75;;;26.60;99.90;;;;;;8371258;28;20200;-69
2022/06/30 19:24:24;;;;;;;6.95;5.55;;;26.40;99.90;;;;;;8371329;28;20217;-69
2022/06/30 19:28:25;;;;;;;6.22;5.63;;;26.10;99.90;;;;;;8373222;28;20206;-69
2022/06/30 19:32:26;;;;;;;5.78;5.18;;;25.90;1.00;;;;;;8372436;28;20444;-68
2022/06/30 19:36:26;;;;;;;5.82;5.35;;;25.60;1.00;;;;;;8376957;28;20181;-69
2022/06/30 19:40:30;;;;;;;5.73;4.87;;;25.40;99.90;;;;;;8369133;28;20216;-69
2022/06/30 19:44:30;;;;;;;4.53;4.20;;;25.10;99.90;;;;;;8367916;28;20186;-70
2022/06/30 19:48:32;;;;;;;5.07;4.57;;;24.80;1.00;;;;;;8373706;28;20209;-69
2022/06/30 19:52:33;;;;;;;5.00;4.60;;;24.70;24.00;;;;;;8367023;28;20186;-70
2022/06/30 19:56:34;;;;;;;5.07;4.60;;;24.50;99.90;;;;;;8362273;28;20432;-69
2022/06/30 20:00:34;;;;;;;6.20;5.60;;;24.30;99.90;;;;;;8355206;28;20635;-70
2022/06/30 20:13:14;;;;;;;7.80;6.67;;;23.80;1.00;;;;;;8371869;28;20224;-76
2022/06/30 20:17:15;;;;;;;6.60;6.00;;;23.60;99.90;;;;;;8369777;28;20440;-69
2022/06/30 20:21:15;;;;;;;6.10;5.60;;;23.30;99.90;;;;;;8370483;28;20204;-70
2022/06/30 20:25:17;;;;;;;8.33;6.10;;;23.10;99.90;;;;;;8375074;28;20184;-71
2022/06/30 20:29:18;;;;;;;7.67;6.97;;;22.90;99.90;;;;;;8368288;28;20221;-71
2022/06/30 20:33:19;;;;;;;6.50;5.90;;;22.80;99.90;;;;;;8369946;28;20188;-72
2022/06/30 20:37:21;;;;;;;6.33;5.70;;;22.60;99.90;;;;;;8377849;28;20526;-71
2022/06/30 20:41:32;;;;;;;6.90;5.63;;;22.50;1.00;;;;;;8369873;28;20256;-71
2022/06/30 20:45:33;;;;;;;6.90;5.50;;;22.40;99.90;;;;;;8370319;28;20344;-72
2022/06/30 20:53:53;;;;;;;6.47;5.83;;;22.20;1.00;;;;;;8370920;28;20236;-71
2022/06/30 20:57:55;;;;;;;7.30;6.60;;;22.10;8.90;;;;;;8369352;28;20277;-71
2022/06/30 21:01:56;;;;;;;8.13;6.00;;;21.90;99.90;;;;;;8367587;28;20211;-71
2022/06/30 21:05:57;;;;;;;7.40;5.67;;;21.80;99.90;;;;;;8374963;28;20207;-71
2022/06/30 21:09:58;;;;;;;6.47;5.83;;;21.70;99.90;;;;;;8372465;28;20184;-71
2022/06/30 21:13:59;;;;;;;6.10;5.50;;;21.70;99.90;;;;;;8367172;28;20546;-71
2022/06/30 21:18:00;;;;;;;7.60;6.47;;;21.60;99.90;;;;;;8371436;28;20189;-71
2022/06/30 21:22:01;;;;;;;7.10;6.40;;;21.60;99.90;;;;;;8367947;28;20184;-70
2022/06/30 21:26:02;;;;;;;7.30;6.60;;;21.50;99.90;;;;;;8376134;28;20206;-74
2022/06/30 21:30:04;;;;;;;6.63;6.03;;;21.50;1.00;;;;;;8372641;28;20205;-71
2022/06/30 21:34:05;;;;;;;6.53;5.93;;;21.40;1.40;;;;;;8369065;28;20182;-71
2022/06/30 21:38:06;;;;;;;7.03;6.43;;;21.30;67.30;;;;;;8375036;28;20193;-71
2022/06/30 21:42:07;;;;;;;7.97;7.27;;;21.20;99.90;;;;;;8372134;28;20197;-71